Flight Track Log - Related Links

Times and Time Zones

All times are in EDT time to prevent confusion due to time zone crossing. See the N56210 flight status page for this flight to view local times or setup timezone preferences in your user account.

Time Position Orientation Groundspeed Altitude Reporting Facility
EDT Latitude Longitude Course Direction KTS MPH feet Rate Location/Type
Fri 05:50:43 PM 42.1619 -71.9892 205° Southwest 109 125 3,000  Level Boston Center
Fri 05:51:50 PM 42.1267 -72.0006 193° South 121 139 3,100  Climbing Boston Center
Fri 05:52:51 PM 42.0933 -72.0064 187° South 123 142 3,000 -52 Descending Boston Center
Fri 05:53:45 PM 42.0600 -72.0122 187° South 127 146 3,000 -52 Level Boston Center
Fri 05:54:46 PM 42.0244 -72.0181 187° South 127 146 2,900 -45 Descending Boston Center
Fri 05:55:59 PM 41.9808 -72.0239 186° South 127 146 2,900  Level Boston Center
Fri 05:56:00 PM 41.7604 -72.7931 205° Southwest  Level Estimated
Fri 05:57:00 PM 41.9475 -72.0297 187° South 123 142 2,900  Level Boston Center
Fri 05:58:01 PM 41.9183 -72.0439 200° South 115 132 2,900  Level Boston Center
Fri 05:59:01 PM 41.8933 -72.0747 223° Southwest 110 127 2,900 52 Level Boston Center
Fri 05:59:56 PM 41.8725 -72.0944 215° Southwest 109 125 3,000 52 Climbing Boston Center
Fri 06:00:57 PM 41.8497 -72.1281 228° Southwest 112 129 3,000  Level Boston Center
Fri 06:02:04 PM 41.8247 -72.1614 225° Southwest 117 135 3,000  Level Boston Center
Fri 06:03:11 PM 41.8000 -72.1978 228° Southwest 120 138 3,000  Level Boston Center
Fri 06:04:11 PM 41.7728 -72.2258 218° Southwest 120 138 3,000  Level Boston Center
Fri 06:05:06 PM 41.7478 -72.2508 217° Southwest 118 136 3,000  Level Boston Center
Fri 06:06:07 PM 41.7231 -72.2789 220° Southwest 119 137 3,000  Level Boston Center
Fri 06:07:07 PM 41.7000 -72.3094 225° Southwest 118 136 3,000 -50 Level Boston Center
Fri 06:08:08 PM 41.6772 -72.3372 222° Southwest 115 132 2,900 -52 Descending Boston Center
Fri 06:09:03 PM 41.6542 -72.3622 219° Southwest 116 133 2,900  Level Boston Center
Fri 06:09:57 PM 41.6314 -72.3900 222° Southwest 114 131 2,900 52 Level Boston Center
Fri 06:10:59 PM 41.6106 -72.4206 228° Southwest 112 129 3,000 47 Climbing Boston Center
Fri 06:12:05 PM 41.5792 -72.4483 214° Southwest 126 145 3,000  Level Boston Center
Fri 06:13:00 PM 41.5542 -72.4733 217° Southwest 122 140 3,000 -52 Level Boston Center
Fri 06:14:00 PM 41.5314 -72.5039 225° Southwest 119 137 2,900 -52 Descending Boston Center
Fri 06:14:55 PM 41.5083 -72.5317 222° Southwest 118 136 2,900 49 Level Boston Center
Fri 06:16:02 PM 41.4814 -72.5675 225° Southwest 118 136 3,000 30 Climbing Boston Center
Fri 06:18:15 PM 41.4167 -72.6167 210° Southwest 121 139 3,000  Level New York TRACON
Fri 06:19:15 PM 41.4000 -72.6500 236° Southwest 121 139 3,000  Level New York TRACON
Fri 06:20:15 PM 41.3667 -72.6833 217° Southwest 120 138 3,000 50 Level New York TRACON
Fri 06:21:15 PM 41.3500 -72.7167 236° Southwest 123 142 3,100 50 Climbing New York TRACON
Fri 06:22:15 PM 41.3167 -72.7333 201° Southwest 123 142 3,100  Level New York TRACON
Fri 06:23:15 PM 41.3000 -72.7667 236° Southwest 126 145 3,100  Level New York TRACON
Fri 06:24:15 PM 41.2667 -72.8000 217° Southwest 122 140 3,100  Level New York TRACON
Fri 06:25:15 PM 41.2500 -72.8333 236° Southwest 126 145 3,100 50 Level New York TRACON
Fri 06:26:15 PM 41.2167 -72.8667 217° Southwest 123 142 3,200 50 Climbing New York TRACON
Fri 06:27:15 PM 41.2000 -72.8833 217° Southwest 120 138 3,200 -50 Level New York TRACON
Fri 06:28:15 PM 41.1667 -72.9167 217° Southwest 127 146 3,100 -100 Descending New York TRACON
Fri 06:29:15 PM 41.1500 -72.9500 236° Southwest 127 146 3,000 -100 Descending New York TRACON
Fri 06:30:15 PM 41.1167 -72.9833 217° Southwest 127 146 2,900 -67 Descending New York TRACON
Fri 06:32:15 PM 41.0667 -73.0500 225° Southwest 123 142 2,800 -33 Descending New York TRACON
Fri 06:33:15 PM 41.0333 -73.0833 217° Southwest 123 142 2,800 -50 Level New York TRACON
Fri 06:34:15 PM 41.0167 -73.1000 217° Southwest 124 143 2,700 -50 Descending New York TRACON
Fri 06:35:15 PM 40.9833 -73.1333 217° Southwest 125 144 2,700 -200 Level New York TRACON
Fri 06:37:15 PM 40.9333 -73.1833 217° Southwest 124 143 2,100 -300 Descending New York TRACON
Fri 06:39:00 PM 40.8861 -73.2307 217° Southwest  Level FlightAware Approximate

Login

Don't have an account? Register now (free) for customized features, flight alerts, and more!